Pagina principale
METAR-TAF:

METAR-TAF

Aeroporti :

Villavicencio, Colombia

latitudine: 04-10N, longitudine: 073-37W, altezza: 423 m

Osservazione

Il bollettino è stato emesso 26 minuti fa, alle 02:00 UTC
Vento calmo
Temperature 23°C
Umidità 89%
Pressione 1015 hPa
Visibilità 10 km o più
Poco nuvoloso ad un'altezza di 2300 ft
Nubi sparse ad un'altezza di 9000 ft

METAR: SKVV 210200Z 00000KT 9999 FEW023 SCT090 23/21 Q1015

Ora: 21:26 (02:26 UTC)


TAF: mancante

Osservazioni e previsioni meteorologiche di più di 4000 aeroporti (messaggi METAR e TAF).

Le stazioni disponibili sono rappresentate dai dischi gialli e rossi sulla carta.

Puntare il mouse per vedere il nome della stazione.

Clicca sopra per visualizzare le osservazioni e previsioni meteorologiche.

Per cambiare la mappa : fare clic sui pulsanti verdi con una croce nera per ingrandire, il pulsante verde con un trattino per diminuire, o sulla freccia verde per le mappe adiacenti.


METAR-TAF: